Time;durP1;ratioP1;P1;durP2;ratioP2;P2;SDS_P1;SDS_P2;PMS_P1;PMS_P2;Temp;Humidity;BMP_temperature;BMP_pressure;BME280_temperature;BME280_humidity;BME280_pressure;Samples;Min_cycle;Max_cycle;Signal;HPM_P1;HPM_P2
2023/11/21 00:00:09;;;;;;;17.00;7.90;;;;;;;-0.71;100.00;99952.16;105315;1260;61278;-58
2023/11/21 00:02:42;;;;;;;16.90;8.40;;;;;;;-0.69;100.00;99953.40;105134;1261;61078;-56
2023/11/21 00:05:10;;;;;;;19.30;9.50;;;;;;;-0.69;100.00;99950.58;105169;1257;73082;-56
2023/11/21 00:07:38;;;;;;;15.70;7.40;;;;;;;-0.67;100.00;99947.92;105889;1257;65655;-57
2023/11/21 00:10:07;;;;;;;11.70;7.30;;;;;;;-0.67;100.00;99957.26;105187;1259;72748;-56
2023/11/21 00:12:36;;;;;;;11.40;7.30;;;;;;;-0.69;100.00;99955.86;105551;1257;60540;-56
2023/11/21 00:15:09;;;;;;;14.10;7.90;;;;;;;-0.70;100.00;99954.98;105224;1260;60544;-57
2023/11/21 00:17:37;;;;;;;11.80;6.20;;;;;;;-0.73;100.00;99958.84;105064;1260;74205;-57
2023/11/21 00:20:06;;;;;;;13.20;8.50;;;;;;;-0.76;100.00;99963.25;107032;1256;66669;-58
2023/11/21 00:22:35;;;;;;;12.90;7.90;;;;;;;-0.78;100.00;99967.85;106663;1253;72502;-57
2023/11/21 00:25:06;;;;;;;12.10;7.60;;;;;;;-0.81;100.00;99976.64;105550;1259;60967;-59
2023/11/21 00:27:34;;;;;;;10.00;7.20;;;;;;;-0.83;100.00;99978.23;105442;1259;60466;-56
2023/11/21 00:30:04;;;;;;;14.30;7.80;;;;;;;-0.84;100.00;99982.09;105246;1262;73953;-58
2023/11/21 00:32:33;;;;;;;12.60;7.00;;;;;;;-0.86;100.00;99985.10;105438;1253;65563;-57
2023/11/21 00:35:01;;;;;;;9.90;6.40;;;;;;;-0.87;100.00;99986.52;108939;1254;73185;-57
2023/11/21 00:37:29;;;;;;;10.40;5.80;;;;;;;-0.87;100.00;99984.58;108889;1252;59618;-59
2023/11/21 00:39:56;;;;;;;10.40;5.60;;;;;;;-0.87;100.00;99977.35;108969;1253;60145;-58
2023/11/21 00:42:24;;;;;;;8.60;4.90;;;;;;;-0.87;100.00;99981.40;108887;1253;73915;-57
2023/11/21 00:44:51;;;;;;;9.80;4.70;;;;;;;-0.86;100.00;99987.21;108830;1253;65733;-57
2023/11/21 00:47:18;;;;;;;8.10;5.60;;;;;;;-0.83;100.00;99994.44;108929;1256;73170;-57
2023/11/21 00:49:46;;;;;;;10.90;5.40;;;;;;;-0.81;100.00;99994.27;108741;1253;59971;-58
2023/11/21 00:52:15;;;;;;;13.60;7.50;;;;;;;-0.80;100.00;99982.29;108964;1255;60098;-58
2023/11/21 00:54:43;;;;;;;7.40;5.00;;;;;;;-0.80;100.00;99978.59;108884;1253;74194;-57
2023/11/21 00:57:11;;;;;;;9.00;6.30;;;;;;;-0.80;100.00;99982.99;108977;1253;64779;-58
2023/11/21 00:59:39;;;;;;;9.30;5.80;;;;;;;-0.79;100.00;99982.64;108912;1253;72737;-59
2023/11/21 01:02:10;;;;;;;17.90;7.50;;;;;;;-0.80;100.00;99981.59;108835;1256;59824;-56
2023/11/21 01:04:37;;;;;;;15.10;7.10;;;;;;;-0.79;100.00;99985.48;105283;1259;61505;-57
2023/11/21 01:07:05;;;;;;;9.40;6.30;;;;;;;-0.80;100.00;99981.94;105200;1254;73881;-57
2023/11/21 01:09:33;;;;;;;12.60;7.10;;;;;;;-0.80;100.00;99976.48;105398;1259;67063;-57
2023/11/21 01:12:00;;;;;;;17.40;7.50;;;;;;;-0.81;100.00;99976.46;105192;1260;70649;-57
2023/11/21 01:14:28;;;;;;;12.70;7.00;;;;;;;-0.83;100.00;99979.45;105366;1255;60523;-57
2023/11/21 01:16:57;;;;;;;16.90;7.70;;;;;;;-0.84;100.00;99982.98;105097;1254;60452;-56
2023/11/21 01:19:25;;;;;;;12.30;7.20;;;;;;;-0.85;100.00;99987.58;105921;1257;72938;-57
2023/11/21 01:21:52;;;;;;;10.40;6.10;;;;;;;-0.86;100.00;99992.51;105469;1259;67510;-56
2023/11/21 01:24:20;;;;;;;8.90;6.40;;;;;;;-0.85;100.00;99993.21;105455;1254;72814;-55
2023/11/21 01:26:47;;;;;;;11.70;5.80;;;;;;;-0.85;100.00;99998.84;105218;1259;60989;-58
2023/11/21 01:29:15;;;;;;;9.90;6.10;;;;;;;-0.85;100.00;99999.38;105212;1253;60351;-57
2023/11/21 01:31:42;;;;;;;9.90;5.50;;;;;;;-0.86;100.00;99999.56;105248;1261;73859;-57
2023/11/21 01:34:10;;;;;;;10.10;5.60;;;;;;;-0.85;100.00;99997.79;105260;1261;66909;-57
2023/11/21 01:36:37;;;;;;;11.30;5.60;;;;;;;-0.85;100.00;99997.60;105246;1259;72717;-58
2023/11/21 01:39:10;;;;;;;12.10;5.70;;;;;;;-0.85;100.00;99996.36;105281;1254;60554;-57
2023/11/21 01:41:38;;;;;;;12.00;6.10;;;;;;;-0.82;100.00;100003.77;105057;1254;60537;-55
2023/11/21 01:44:07;;;;;;;12.90;6.60;;;;;;;-0.81;100.00;100002.90;105127;1259;74005;-57
2023/11/21 01:46:35;;;;;;;10.20;6.00;;;;;;;-0.82;100.00;100006.24;105575;1259;66781;-55
2023/11/21 01:49:03;;;;;;;15.30;6.80;;;;;;;-0.83;100.00;100005.71;105276;1258;71528;-56
2023/11/21 01:51:31;;;;;;;13.90;6.70;;;;;;;-0.84;100.00;100001.83;106067;1260;60637;-57
2023/11/21 01:53:59;;;;;;;9.60;5.90;;;;;;;-0.86;100.00;99998.86;105376;1258;60517;-57
2023/11/21 01:56:27;;;;;;;9.60;6.10;;;;;;;-0.89;100.00;100002.72;105292;1258;74011;-55
2023/11/21 01:58:55;;;;;;;14.30;7.20;;;;;;;-0.91;100.00;100001.98;105268;1259;67738;-56
2023/11/21 02:01:23;;;;;;;12.80;6.80;;;;;;;-0.93;100.00;99994.77;105113;1256;71336;-57
2023/11/21 02:03:50;;;;;;;14.00;6.90;;;;;;;-0.94;100.00;99991.96;105214;1261;62289;-58
2023/11/21 02:06:18;;;;;;;13.80;7.20;;;;;;;-0.97;100.00;99996.53;105908;1259;60355;-56
2023/11/21 02:08:46;;;;;;;11.10;7.20;;;;;;;-0.98;100.00;100000.05;106620;1258;72967;-60
2023/11/21 02:11:13;;;;;;;12.80;6.30;;;;;;;-0.99;100.00;100003.39;105260;1260;67115;-56
2023/11/21 02:13:45;;;;;;;11.60;5.90;;;;;;;-1.00;100.00;100006.55;107113;1256;71717;-58
2023/11/21 02:16:13;;;;;;;12.10;6.70;;;;;;;-1.01;100.00;100009.02;105041;1257;60445;-57
2023/11/21 02:18:41;;;;;;;10.80;5.90;;;;;;;-1.00;100.00;100010.08;104459;1256;3321476;-57
2023/11/21 02:22:26;;;;;;;11.20;7.10;;;;;;;-0.99;100.00;100075.25;102209;1290;601319;-58
2023/11/21 02:24:53;;;;;;;9.60;5.90;;;;;;;-1.00;100.00;100080.55;104573;1272;61270;-55
2023/11/21 02:27:23;;;;;;;12.00;6.30;;;;;;;-1.01;100.00;100072.79;104568;1272;59267;-58
2023/11/21 02:29:50;;;;;;;10.30;6.70;;;;;;;-1.04;100.00;100069.45;104372;1273;73515;-58
2023/11/21 02:32:19;;;;;;;11.40;6.80;;;;;;;-1.08;100.00;100065.55;104450;1275;67539;-55
2023/11/21 02:34:46;;;;;;;12.10;7.60;;;;;;;-1.12;100.00;100063.08;104368;1268;73165;-57
2023/11/21 02:37:13;;;;;;;13.50;7.10;;;;;;;-1.22;100.00;100060.92;102272;1264;59241;-56
2023/11/21 02:39:41;;;;;;;10.30;6.40;;;;;;;-1.30;100.00;100056.14;104681;1269;59343;-56
2023/11/21 02:42:08;;;;;;;11.60;7.30;;;;;;;-1.37;100.00;100057.16;104898;1267;59254;-56
2023/11/21 02:44:36;;;;;;;9.50;6.00;;;;;;;-1.44;100.00;100054.83;104846;1266;59532;-53
2023/11/21 02:47:04;;;;;;;11.20;7.40;;;;;;;-1.52;100.00;100052.52;104850;1265;70409;-55
2023/11/21 02:49:31;;;;;;;13.90;7.20;;;;;;;-1.57;100.00;100049.32;105579;1265;61024;-54
2023/11/21 02:51:59;;;;;;;16.70;7.10;;;;;;;-1.61;100.00;100047.89;104754;1261;59645;-55
2023/11/21 02:54:27;;;;;;;10.50;6.90;;;;;;;-1.63;100.00;100045.77;104748;1269;72444;-57
2023/11/21 02:56:54;;;;;;;9.80;6.90;;;;;;;-1.66;100.00;100049.63;104733;1260;67432;-56
2023/11/21 02:59:22;;;;;;;13.60;7.40;;;;;;;-1.69;100.00;100047.13;104699;1266;71055;-59
2023/11/21 03:01:49;;;;;;;11.00;7.00;;;;;;;-1.71;100.00;100047.31;104763;1267;60934;-56
2023/11/21 03:04:17;;;;;;;12.20;7.00;;;;;;;-1.73;100.00;100049.06;105481;1264;59806;-58
2023/11/21 03:06:45;;;;;;;11.80;6.90;;;;;;;-1.73;100.00;100048.53;105200;1262;71147;-55
2023/11/21 03:09:13;;;;;;;12.40;7.80;;;;;;;-1.72;100.00;100052.23;105359;1254;67997;-58
2023/11/21 03:11:40;;;;;;;17.50;8.30;;;;;;;-1.73;100.00;100052.92;104981;1262;71468;-57
2023/11/21 03:14:08;;;;;;;15.10;8.00;;;;;;;-1.73;100.00;100055.04;105224;1255;59911;-59
2023/11/21 03:16:35;;;;;;;14.70;7.90;;;;;;;-1.74;100.00;100053.10;105666;1260;59552;-54
2023/11/21 03:19:03;;;;;;;18.10;9.30;;;;;;;-1.77;100.00;100049.20;105192;1254;74141;-57
2023/11/21 03:21:30;;;;;;;21.40;10.00;;;;;;;-1.80;100.00;100047.63;105364;1255;66915;-57
2023/11/21 03:23:59;;;;;;;20.30;10.30;;;;;;;-1.82;100.00;100043.90;105031;1261;73298;-56
2023/11/21 03:26:27;;;;;;;24.40;10.50;;;;;;;-1.85;100.00;100037.71;105382;1260;59648;-58
2023/11/21 03:28:54;;;;;;;21.20;10.80;;;;;;;-1.89;100.00;100034.72;105192;1254;60833;-56
2023/11/21 03:31:23;;;;;;;23.40;11.60;;;;;;;-1.94;100.00;100040.65;108692;1254;73402;-58
2023/11/21 03:33:52;;;;;;;19.60;10.00;;;;;;;-1.96;100.00;100043.45;108912;1254;66240;-56
2023/11/21 03:36:20;;;;;;;22.50;9.70;;;;;;;-2.01;100.00;100044.13;108709;1260;73438;-57
2023/11/21 03:38:48;;;;;;;19.80;11.00;;;;;;;-2.06;100.00;100046.74;108870;1257;59671;-57
2023/11/21 03:41:16;;;;;;;18.10;9.90;;;;;;;-2.13;100.00;100043.69;108029;1258;60786;-59
2023/11/21 03:43:43;;;;;;;16.90;9.50;;;;;;;-2.17;100.00;100045.77;105290;1261;73019;-56
2023/11/21 03:46:12;;;;;;;14.70;8.70;;;;;;;-2.20;100.00;100045.91;108820;1254;66769;-59
2023/11/21 03:48:40;;;;;;;19.90;9.10;;;;;;;-2.23;100.00;100043.98;108866;1254;71606;-57
2023/11/21 03:51:08;;;;;;;15.70;8.40;;;;;;;-2.26;100.00;100045.16;108925;1257;59559;-57
2023/11/21 03:53:35;;;;;;;11.40;7.30;;;;;;;-2.28;100.00;100050.08;108966;1254;59348;-58
2023/11/21 03:56:06;;;;;;;14.10;7.20;;;;;;;-2.28;100.00;100054.64;108830;1254;73530;-56
2023/11/21 03:58:34;;;;;;;10.70;5.90;;;;;;;-2.27;100.00;100056.59;108759;1257;67869;-56
2023/11/21 04:01:01;;;;;;;11.90;7.20;;;;;;;-2.28;100.00;100053.77;108939;1254;71379;-57
2023/11/21 04:03:29;;;;;;;13.10;6.60;;;;;;;-2.34;100.00;100051.27;108972;1254;57960;-59
2023/11/21 04:05:57;;;;;;;15.70;7.30;;;;;;;-2.40;100.00;100042.25;108713;1254;59346;-55
2023/11/21 04:08:25;;;;;;;11.70;6.70;;;;;;;-2.44;100.00;100040.98;105259;1254;73161;-55
2023/11/21 04:10:53;;;;;;;14.10;7.80;;;;;;;-2.46;100.00;100038.15;105355;1260;66947;-55
2023/11/21 04:13:21;;;;;;;15.40;7.80;;;;;;;-2.49;100.00;100036.56;108924;1254;70377;-58
2023/11/21 04:15:48;;;;;;;12.60;6.60;;;;;;;-2.49;100.00;100049.39;108880;1254;59634;-57
2023/11/21 04:18:16;;;;;;;15.00;8.00;;;;;;;-2.50;100.00;100050.26;106160;1254;59746;-56
2023/11/21 04:20:44;;;;;;;12.50;8.10;;;;;;;-2.51;100.00;100052.17;105280;1254;73101;-56
2023/11/21 04:23:13;;;;;;;12.10;7.30;;;;;;;-2.54;100.00;100042.47;105313;1257;66883;-56
2023/11/21 04:25:41;;;;;;;12.20;7.60;;;;;;;-2.56;100.00;100039.31;105953;1260;72702;-56
2023/11/21 04:28:08;;;;;;;11.40;7.30;;;;;;;-2.58;100.00;100040.00;105351;1258;60514;-56
2023/11/21 04:30:35;;;;;;;12.90;6.80;;;;;;;-2.59;100.00;100036.12;105261;1259;60069;-55
2023/11/21 04:33:03;;;;;;;15.60;7.40;;;;;;;-2.59;100.00;100039.98;106237;1254;71804;-55
2023/11/21 04:35:30;;;;;;;11.70;6.50;;;;;;;-2.59;100.00;100044.20;105459;1261;65970;-59
2023/11/21 04:37:58;;;;;;;14.30;7.20;;;;;;;-2.56;100.00;100048.62;105362;1254;70455;-55
2023/11/21 04:40:27;;;;;;;11.80;6.40;;;;;;;-2.54;100.00;100055.30;105270;1259;61548;-55
2023/11/21 04:42:54;;;;;;;11.00;6.80;;;;;;;-2.51;100.00;100056.39;105533;1253;59717;-55
2023/11/21 04:45:22;;;;;;;14.60;7.50;;;;;;;-2.49;100.00;100057.65;105162;1254;71952;-56
2023/11/21 04:47:49;;;;;;;8.40;6.30;;;;;;;-2.49;100.00;100062.91;105268;1254;66937;-57
2023/11/21 04:50:16;;;;;;;12.60;7.00;;;;;;;-2.51;100.00;100061.67;107285;1259;71639;-56
2023/11/21 04:52:44;;;;;;;9.10;6.30;;;;;;;-2.49;100.00;100066.25;105199;1261;61083;-56
2023/11/21 04:55:11;;;;;;;12.90;7.20;;;;;;;-2.49;100.00;100072.23;105282;1258;59749;-56
2023/11/21 04:57:41;;;;;;;7.50;5.40;;;;;;;-2.46;100.00;100068.02;105247;1259;73435;-58
2023/11/21 05:00:10;;;;;;;10.00;6.40;;;;;;;-2.43;100.00;100065.77;105951;1254;67153;-58
2023/11/21 05:02:38;;;;;;;10.30;6.80;;;;;;;-2.40;100.00;100066.70;105187;1259;71437;-58
2023/11/21 05:05:07;;;;;;;15.30;7.50;;;;;;;-2.38;100.00;100066.34;105751;1257;59749;-57
2023/11/21 05:07:35;;;;;;;12.60;7.90;;;;;;;-2.34;100.00;100071.13;105612;1255;60190;-55
2023/11/21 05:10:08;;;;;;;15.00;8.20;;;;;;;-2.31;100.00;100067.81;105498;1257;72878;-57
2023/11/21 05:12:37;;;;;;;14.70;7.50;;;;;;;-2.30;100.00;100070.10;105531;1260;67047;-55
2023/11/21 05:15:12;;;;;;;13.60;7.50;;;;;;;-2.27;100.00;100069.41;106770;1254;71449;-55
2023/11/21 05:17:43;;;;;;;14.80;8.00;;;;;;;-2.26;100.00;100084.90;105314;1260;59731;-58
2023/11/21 05:20:13;;;;;;;24.60;9.10;;;;;;;-2.26;100.00;100097.39;106320;1257;60011;-54
2023/11/21 05:22:41;;;;;;;10.60;7.10;;;;;;;-2.28;100.00;100103.69;105804;1255;73079;-56
2023/11/21 05:25:11;;;;;;;17.30;8.10;;;;;;;-2.30;100.00;100095.59;105889;1257;65655;-55
2023/11/21 05:27:38;;;;;;;18.60;8.20;;;;;;;-2.30;100.00;100106.15;105568;1259;71381;-55
2023/11/21 05:30:06;;;;;;;17.10;8.20;;;;;;;-2.28;100.00;100118.10;105358;1254;60752;-56
2023/11/21 05:32:34;;;;;;;16.80;7.80;;;;;;;-2.26;100.00;100121.65;105641;1254;60124;-58
2023/11/21 05:35:01;;;;;;;13.90;7.90;;;;;;;-2.22;100.00;100125.55;106143;1254;72155;-56
2023/11/21 05:37:29;;;;;;;13.10;8.60;;;;;;;-2.20;100.00;100126.44;105294;1254;65294;-57
2023/11/21 05:39:57;;;;;;;16.30;9.60;;;;;;;-2.16;100.00;100129.11;106846;1254;72010;-57
2023/11/21 05:42:25;;;;;;;19.70;8.70;;;;;;;-2.11;100.00;100134.27;105334;1257;59721;-55
2023/11/21 05:44:53;;;;;;;19.20;10.00;;;;;;;-2.06;100.00;100136.42;104988;1254;60845;-57
2023/11/21 05:47:21;;;;;;;20.70;12.50;;;;;;;-2.00;100.00;100128.02;105282;1254;70807;-56
2023/11/21 05:49:51;;;;;;;21.90;11.70;;;;;;;-1.94;100.00;100128.41;105606;1254;66269;-54
2023/11/21 05:52:20;;;;;;;19.80;11.50;;;;;;;-1.88;100.00;100125.30;105222;1254;74770;-54
2023/11/21 05:54:48;;;;;;;16.40;10.60;;;;;;;-1.83;100.00;100123.75;105419;1257;59622;-56
2023/11/21 05:57:15;;;;;;;14.40;9.00;;;;;;;-1.79;100.00;100133.29;105368;1258;59616;-55
2023/11/21 05:59:42;;;;;;;14.60;9.20;;;;;;;-1.75;100.00;100146.69;105369;1260;73137;-52
2023/11/21 06:02:10;;;;;;;20.00;10.30;;;;;;;-1.73;100.00;100154.97;105388;1254;65690;-56
2023/11/21 06:04:37;;;;;;;14.90;10.00;;;;;;;-1.71;100.00;100151.84;105375;1260;71477;-56
2023/11/21 06:07:05;;;;;;;16.20;9.80;;;;;;;-1.69;100.00;100147.42;105169;1259;59732;-56
2023/11/21 06:09:33;;;;;;;17.80;9.80;;;;;;;-1.69;100.00;100152.70;105248;1259;60637;-56
2023/11/21 06:12:00;;;;;;;16.50;9.10;;;;;;;-1.69;100.00;100153.22;105298;1254;71737;-56
2023/11/21 06:14:27;;;;;;;14.90;9.70;;;;;;;-1.70;100.00;100157.27;105131;1259;67025;-57
2023/11/21 06:16:56;;;;;;;19.40;11.10;;;;;;;-1.69;100.00;100160.09;105262;1255;72705;-57
2023/11/21 06:19:24;;;;;;;15.00;10.10;;;;;;;-1.67;100.00;100166.27;105673;1257;59794;-56
2023/11/21 06:21:51;;;;;;;14.30;9.30;;;;;;;-1.66;100.00;100163.30;105810;1254;60100;-56
2023/11/21 06:24:20;;;;;;;16.30;10.40;;;;;;;-1.64;100.00;100160.15;105095;1260;72216;-56
2023/11/21 06:26:48;;;;;;;14.10;9.10;;;;;;;-1.61;100.00;100153.81;108934;1253;65814;-59
2023/11/21 06:29:15;;;;;;;14.10;10.50;;;;;;;-1.58;100.00;100148.74;108936;1254;71492;-57
2023/11/21 06:31:43;;;;;;;20.60;12.00;;;;;;;-1.52;100.00;100149.83;105443;1260;61287;-57
2023/11/21 06:34:11;;;;;;;17.10;10.20;;;;;;;-1.47;100.00;100156.73;105282;1259;60458;-55
2023/11/21 06:36:38;;;;;;;16.90;10.00;;;;;;;-1.43;100.00;100163.79;105314;1259;72144;-59
2023/11/21 06:39:07;;;;;;;24.20;11.70;;;;;;;-1.39;100.00;100160.48;105262;1256;67491;-56
2023/11/21 06:41:34;;;;;;;20.00;10.80;;;;;;;-1.34;100.00;100159.10;105277;1256;71389;-56
2023/11/21 06:44:02;;;;;;;18.60;12.80;;;;;;;-1.30;100.00;100161.77;105366;1256;60451;-55
2023/11/21 06:46:30;;;;;;;23.60;12.40;;;;;;;-1.29;100.00;100155.63;108985;1254;59136;-57
2023/11/21 06:48:57;;;;;;;20.90;10.90;;;;;;;-1.29;100.00;100159.67;108863;1254;73177;-58
2023/11/21 06:51:25;;;;;;;21.90;12.50;;;;;;;-1.27;100.00;100162.84;108951;1254;67608;-58
2023/11/21 06:53:52;;;;;;;20.20;12.90;;;;;;;-1.28;100.00;100162.84;105868;1254;73758;-56
2023/11/21 06:56:20;;;;;;;18.40;11.80;;;;;;;-1.28;100.00;100164.61;105262;1255;60434;-56
2023/11/21 06:58:47;;;;;;;19.40;12.10;;;;;;;-1.28;100.00;100162.51;105259;1254;62349;-57
2023/11/21 07:01:15;;;;;;;18.20;11.10;;;;;;;-1.28;100.00;100154.75;105315;1254;72646;-57
2023/11/21 07:03:42;;;;;;;20.60;11.00;;;;;;;-1.28;100.00;100158.98;105319;1259;66331;-56
2023/11/21 07:06:10;;;;;;;18.90;11.20;;;;;;;-1.28;100.00;100166.20;104981;1254;73132;-56
2023/11/21 07:08:37;;;;;;;20.80;11.30;;;;;;;-1.28;100.00;100163.55;105320;1254;60815;-56
2023/11/21 07:11:05;;;;;;;19.30;12.00;;;;;;;-1.25;100.00;100171.48;104985;1257;60526;-58
2023/11/21 07:13:32;;;;;;;19.60;11.30;;;;;;;-1.22;100.00;100171.16;104852;1254;72648;-55
2023/11/21 07:16:00;;;;;;;20.40;11.60;;;;;;;-1.19;100.00;100171.52;104949;1254;65671;-55
2023/11/21 07:18:27;;;;;;;23.90;11.50;;;;;;;-1.14;100.00;100179.47;105623;1257;71423;-55
2023/11/21 07:20:55;;;;;;;17.80;10.50;;;;;;;-1.10;100.00;100184.60;105255;1254;60600;-54
2023/11/21 07:23:22;;;;;;;17.60;11.60;;;;;;;-1.06;100.00;100183.21;105298;1254;60693;-54
2023/11/21 07:25:50;;;;;;;17.50;10.90;;;;;;;-1.00;100.00;100188.52;104973;1257;72809;-54
2023/11/21 07:28:17;;;;;;;16.80;10.80;;;;;;;-0.96;100.00;100186.63;105371;1254;66045;-56
2023/11/21 07:30:45;;;;;;;17.50;11.40;;;;;;;-0.90;100.00;100189.64;105167;1259;71439;-55
2023/11/21 07:33:13;;;;;;;18.40;11.80;;;;;;;-0.85;100.00;100192.30;105151;1259;60542;-56
2023/11/21 07:35:40;;;;;;;16.90;10.70;;;;;;;-0.81;100.00;100188.09;104842;1254;60287;-53
2023/11/21 07:38:07;;;;;;;15.50;9.90;;;;;;;-0.78;100.00;100185.64;104853;1254;74323;-55
2023/11/21 07:40:35;;;;;;;17.80;11.10;;;;;;;-0.74;100.00;100189.70;105250;1254;66976;-54
2023/11/21 07:43:03;;;;;;;16.20;9.80;;;;;;;-0.72;100.00;100185.84;104937;1258;72784;-55
2023/11/21 07:45:30;;;;;;;17.60;9.50;;;;;;;-0.71;100.00;100185.14;104868;1254;60448;-55
2023/11/21 07:47:58;;;;;;;17.60;9.60;;;;;;;-0.70;100.00;100183.73;104825;1258;62557;-55
2023/11/21 07:50:26;;;;;;;21.20;10.40;;;;;;;-0.69;100.00;100181.27;105358;1253;73373;-54
2023/11/21 07:52:54;;;;;;;16.20;9.70;;;;;;;-0.67;100.00;100184.27;105175;1255;65718;-54
2023/11/21 07:55:22;;;;;;;16.50;9.00;;;;;;;-0.65;100.00;100188.85;105350;1254;70483;-54
2023/11/21 07:57:49;;;;;;;15.40;10.70;;;;;;;-0.62;100.00;100188.70;105285;1259;60940;-55
2023/11/21 08:00:17;;;;;;;24.20;13.50;;;;;;;-0.58;100.00;100189.40;105103;1258;60382;-54
2023/11/21 08:02:45;;;;;;;21.50;13.40;;;;;;;-0.55;100.00;100197.35;105124;1254;72608;-56
2023/11/21 08:05:13;;;;;;;24.70;16.00;;;;;;;-0.50;100.00;100203.37;105625;1253;66206;-52
2023/11/21 08:07:51;;;;;;;20.60;11.40;;;;;;;-0.43;100.00;100212.55;105431;1256;72328;-52
2023/11/21 08:10:20;;;;;;;19.00;11.70;;;;;;;-0.37;100.00;100208.70;105364;1258;60474;-53
2023/11/21 08:12:48;;;;;;;19.20;13.00;;;;;;;-0.32;100.00;100214.70;104883;1259;60998;-53
2023/11/21 08:15:16;;;;;;;19.80;13.00;;;;;;;-0.29;100.00;100212.95;105245;1254;74647;-56
2023/11/21 08:17:43;;;;;;;20.70;13.50;;;;;;;-0.24;100.00;100216.49;105275;1257;65121;-55
2023/11/21 08:20:11;;;;;;;21.80;13.40;;;;;;;-0.20;100.00;100223.55;105091;1257;71552;-56
2023/11/21 08:22:40;;;;;;;19.40;12.20;;;;;;;-0.18;100.00;100221.81;105754;1258;59702;-54
2023/11/21 08:25:08;;;;;;;20.40;13.10;;;;;;;-0.17;100.00;100222.49;106041;1253;61203;-54
2023/11/21 08:27:36;;;;;;;20.00;12.80;;;;;;;-0.19;100.00;100228.16;105578;1259;73939;-53
2023/11/21 08:30:04;;;;;;;19.30;12.30;;;;;;;-0.20;100.00;100223.56;105144;1257;67692;-53
2023/11/21 08:32:33;;;;;;;16.70;11.10;;;;;;;-0.18;100.00;100224.45;105238;1255;72684;-53
2023/11/21 08:35:01;;;;;;;19.30;13.10;;;;;;;-0.16;100.00;100227.79;105039;1254;62762;-52
2023/11/21 08:37:30;;;;;;;18.70;13.30;;;;;;;-0.13;100.00;100219.70;105651;1257;60424;-53
2023/11/21 08:39:59;;;;;;;19.90;12.60;;;;;;;-0.12;100.00;100219.88;106096;1254;73888;-53
2023/11/21 08:42:29;;;;;;;24.80;14.80;;;;;;;-0.14;100.00;100218.45;106597;1257;65795;-53
2023/11/21 08:45:00;;;;;;;21.50;13.60;;;;;;;-0.11;100.00;100222.70;105338;1255;71436;-53
2023/11/21 08:47:27;;;;;;;26.80;14.40;;;;;;;-0.07;100.00;100220.77;105313;1258;60920;-53
2023/11/21 08:49:58;;;;;;;26.80;14.40;;;;;;;-0.05;100.00;100220.42;105250;1254;60622;-53
2023/11/21 08:52:26;;;;;;;27.80;15.10;;;;;;;-0.01;100.00;100215.67;105604;1254;74265;-51
2023/11/21 08:54:56;;;;;;;24.70;13.70;;;;;;;0.04;100.00;100220.25;105461;1254;65871;-54
2023/11/21 08:57:23;;;;;;;24.70;14.60;;;;;;;0.10;100.00;100221.84;106456;1255;70600;-54
2023/11/21 08:59:55;;;;;;;24.40;13.10;;;;;;;0.15;100.00;100222.20;105281;1254;59438;-53
2023/11/21 09:02:23;;;;;;;28.50;16.10;;;;;;;0.21;100.00;100217.10;106194;1254;60468;-54
2023/11/21 09:04:52;;;;;;;28.70;17.10;;;;;;;0.26;100.00;100216.92;105348;1259;72635;-55
2023/11/21 09:07:20;;;;;;;33.00;19.00;;;;;;;0.29;100.00;100213.21;106062;1262;69600;-54
2023/11/21 09:09:48;;;;;;;30.10;15.80;;;;;;;0.32;100.00;100217.12;105193;1256;71454;-55
2023/11/21 09:12:16;;;;;;;20.40;10.30;;;;;;;0.34;100.00;100221.52;105281;1254;60612;-54
2023/11/21 09:14:44;;;;;;;17.70;8.80;;;;;;;0.34;100.00;100225.77;106904;1255;60351;-55
2023/11/21 09:17:11;;;;;;;18.70;9.50;;;;;;;0.34;100.00;100219.23;105200;1254;71834;-54
2023/11/21 09:19:40;;;;;;;16.10;11.00;;;;;;;0.34;100.00;100219.04;105220;1254;65623;-54
2023/11/21 09:22:08;;;;;;;16.10;10.00;;;;;;;0.35;100.00;100220.98;108828;1254;74484;-55
2023/11/21 09:24:35;;;;;;;17.80;10.90;;;;;;;0.35;100.00;100212.85;108920;1253;60938;-55
2023/11/21 09:27:05;;;;;;;23.90;11.50;;;;;;;0.37;100.00;100215.52;108941;1254;58731;-55
2023/11/21 09:29:32;;;;;;;16.10;9.70;;;;;;;0.39;100.00;100212.34;108922;1254;74284;-55
2023/11/21 09:32:01;;;;;;;16.00;10.00;;;;;;;0.44;100.00;100210.39;109021;1254;65807;-55
2023/11/21 09:34:28;;;;;;;10.20;8.10;;;;;;;0.47;100.00;100213.23;108956;1253;71798;-55
2023/11/21 09:36:56;;;;;;;13.60;10.10;;;;;;;0.51;100.00;100218.16;108798;1258;60961;-55
2023/11/21 09:39:24;;;;;;;19.60;13.20;;;;;;;0.55;100.00;100212.51;108950;1254;60939;-55
2023/11/21 09:41:55;;;;;;;20.60;13.00;;;;;;;0.59;100.00;100216.75;108979;1254;75995;-54
2023/11/21 09:44:35;;;;;;;28.10;12.20;;;;;;;0.61;100.00;100218.85;108907;1254;66940;-55
2023/11/21 09:47:03;;;;;;;15.70;11.60;;;;;;;0.60;100.00;100220.09;108762;1254;72752;-55
2023/11/21 09:49:34;;;;;;;16.40;11.30;;;;;;;0.60;100.00;100215.67;108904;1254;59075;-54
2023/11/21 09:52:03;;;;;;;17.90;11.60;;;;;;;0.61;100.00;100218.15;108838;1255;58981;-55
2023/11/21 09:54:31;;;;;;;14.30;11.00;;;;;;;0.62;100.00;100218.32;108969;1253;74019;-55
2023/11/21 09:56:59;;;;;;;14.70;10.10;;;;;;;0.63;100.00;100216.02;108952;1254;66771;-55
2023/11/21 09:59:30;;;;;;;15.30;9.50;;;;;;;0.62;100.00;100217.45;105436;1256;71468;-54
2023/11/21 10:02:00;;;;;;;15.30;9.60;;;;;;;0.63;100.00;100218.51;105248;1255;60523;-55
2023/11/21 10:04:28;;;;;;;16.30;10.80;;;;;;;0.62;100.00;100211.43;105260;1257;60277;-54
2023/11/21 10:06:56;;;;;;;14.70;9.50;;;;;;;0.61;100.00;100210.02;105133;1256;73926;-55
2023/11/21 10:09:24;;;;;;;14.60;10.10;;;;;;;0.61;100.00;100210.91;105314;1255;66250;-56
2023/11/21 10:11:51;;;;;;;16.00;9.90;;;;;;;0.62;100.00;100207.73;105308;1254;71515;-56
2023/11/21 10:14:19;;;;;;;14.10;9.30;;;;;;;0.63;100.00;100200.50;105205;1253;60371;-55
2023/11/21 10:16:49;;;;;;;18.40;11.50;;;;;;;0.65;100.00;100203.50;105148;1254;60679;-55
2023/11/21 10:19:18;;;;;;;22.60;13.60;;;;;;;0.66;100.00;100205.09;105096;1254;74148;-55
2023/11/21 10:21:46;;;;;;;12.90;8.30;;;;;;;0.67;100.00;100206.33;105139;1260;65805;-55
2023/11/21 10:24:13;;;;;;;13.70;7.80;;;;;;;0.68;100.00;100205.77;105217;1256;71879;-56
2023/11/21 10:26:41;;;;;;;12.20;9.50;;;;;;;0.69;100.00;100202.06;107608;1254;60677;-54
2023/11/21 10:29:21;;;;;;;12.40;9.00;;;;;;;0.70;100.00;100204.55;105146;1260;60563;-55
2023/11/21 10:31:54;;;;;;;14.30;10.40;;;;;;;0.71;100.00;100201.02;105318;1253;72685;-56
2023/11/21 10:34:22;;;;;;;14.50;10.30;;;;;;;0.70;100.00;100205.24;105653;1254;65296;-55
2023/11/21 10:36:50;;;;;;;8.50;7.50;;;;;;;0.67;100.00;100208.63;105210;1256;70643;-54
2023/11/21 10:39:18;;;;;;;14.30;8.10;;;;;;;0.67;100.00;100212.34;105263;1256;60540;-51
2023/11/21 10:41:47;;;;;;;15.40;8.60;;;;;;;0.67;100.00;100217.10;105989;1258;60522;-55
2023/11/21 10:44:20;;;;;;;13.60;8.40;;;;;;;0.70;100.00;100218.31;105450;1255;74678;-56
2023/11/21 10:46:55;;;;;;;18.00;9.50;;;;;;;0.71;100.00;100216.02;105749;1253;66593;-55
2023/11/21 10:49:27;;;;;;;8.60;6.90;;;;;;;0.73;100.00;100219.39;105892;1254;71481;-54
2023/11/21 10:51:55;;;;;;;7.50;5.80;;;;;;;0.77;100.00;100217.61;105086;1256;61028;-52
2023/11/21 10:54:25;;;;;;;9.00;6.80;;;;;;;0.82;100.00;100215.84;105464;1256;60470;-55
2023/11/21 10:57:00;;;;;;;10.80;7.50;;;;;;;0.86;100.00;100208.58;105398;1257;72219;-55
2023/11/21 10:59:31;;;;;;;15.60;8.80;;;;;;;0.89;100.00;100216.34;105327;1257;66920;-54
2023/11/21 11:02:03;;;;;;;7.40;6.20;;;;;;;0.92;100.00;100222.54;105576;1254;71742;-55
2023/11/21 11:04:32;;;;;;;8.20;6.60;;;;;;;0.95;100.00;100226.77;105454;1256;60550;-56
2023/11/21 11:07:03;;;;;;;9.50;6.50;;;;;;;0.97;100.00;100223.75;105204;1258;60461;-54